Time;durP1;ratioP1;P1;durP2;ratioP2;P2;SDS_P1;SDS_P2;PMS_P1;PMS_P2;Temp;Humidity;BMP_temperature;BMP_pressure;BME280_temperature;BME280_humidity;BME280_pressure;Samples;Min_cycle;Max_cycle;Signal;HPM_P1;HPM_P2
2021/05/03 00:01:44;;;;;;;4.55;4.15;;;;;;;9.77;100.00;102398.81;5009511;28;20034;-64
2021/05/03 00:04:10;;;;;;;6.45;4.43;;;;;;;9.78;100.00;102395.88;5010851;28;20042;-62
2021/05/03 00:06:36;;;;;;;4.72;4.32;;;;;;;9.76;100.00;102391.66;5010981;28;20110;-64
2021/05/03 00:09:03;;;;;;;6.13;4.78;;;;;;;9.73;100.00;102392.91;5010969;28;20081;-64
2021/05/03 00:11:29;;;;;;;8.63;5.03;;;;;;;9.73;100.00;102392.06;5010795;28;20498;-62
2021/05/03 00:13:54;;;;;;;6.30;5.28;;;;;;;9.72;100.00;102385.75;5010911;28;20200;-61
2021/05/03 00:16:20;;;;;;;4.90;4.35;;;;;;;9.71;100.00;102384.03;5011944;28;20160;-61
2021/05/03 00:18:45;;;;;;;6.20;4.82;;;;;;;9.70;100.00;102387.81;5014559;28;20037;-61
2021/05/03 00:21:11;;;;;;;5.97;4.35;;;;;;;9.70;100.00;102382.38;5014412;28;20124;-62
2021/05/03 00:23:37;;;;;;;6.13;4.72;;;;;;;9.72;100.00;102384.88;5014379;28;20045;-62
2021/05/03 00:26:03;;;;;;;8.80;4.90;;;;;;;9.71;100.00;102384.03;5014330;28;20038;-63
2021/05/03 00:28:29;;;;;;;5.20;4.32;;;;;;;9.71;100.00;102383.19;5014343;28;20200;-61
2021/05/03 00:30:55;;;;;;;8.85;5.32;;;;;;;9.70;100.00;102390.56;5014328;28;20042;-61
2021/05/03 00:33:21;;;;;;;9.32;4.88;;;;;;;9.70;100.00;102384.25;5014306;28;20450;-60
2021/05/03 00:35:46;;;;;;;6.82;4.80;;;;;;;9.71;100.00;102381.31;5014202;28;20056;-60
2021/05/03 00:38:12;;;;;;;5.30;4.10;;;;;;;9.69;100.00;102375.22;5012896;28;20095;-62
2021/05/03 00:40:38;;;;;;;5.78;4.05;;;;;;;9.68;100.00;102370.81;5014282;28;20049;-62
2021/05/03 00:43:03;;;;;;;4.60;4.20;;;;;;;9.69;100.00;102369.75;5013986;28;20140;-63
2021/05/03 00:45:30;;;;;;;5.70;3.65;;;;;;;9.65;100.00;102368.47;5014003;28;20049;-61
2021/05/03 00:47:57;;;;;;;5.80;4.13;;;;;;;9.63;100.00;102370.56;5014016;28;20042;-62
2021/05/03 00:50:24;;;;;;;8.90;4.15;;;;;;;9.62;100.00;102363.44;5013895;28;20128;-62
2021/05/03 00:52:51;;;;;;;6.53;4.13;;;;;;;9.60;100.00;102365.50;5013690;28;20029;-63
2021/05/03 00:55:17;;;;;;;4.85;4.10;;;;;;;9.58;100.00;102356.69;5013744;28;20088;-62
2021/05/03 00:57:42;;;;;;;6.70;4.38;;;;;;;9.57;100.00;102365.91;5028972;28;20065;-63
2021/05/03 01:00:11;;;;;;;6.10;4.57;;;;;;;9.55;100.00;102366.13;5013621;28;20069;-63
2021/05/03 01:02:38;;;;;;;5.18;4.28;;;;;;;9.53;100.00;102353.69;5013623;28;20030;-62
2021/05/03 01:05:05;;;;;;;6.20;3.65;;;;;;;9.52;100.00;102358.31;5013527;28;20460;-59
2021/05/03 01:07:30;;;;;;;3.42;3.13;;;;;;;9.51;100.00;102345.72;5013692;28;20112;-61
2021/05/03 01:09:57;;;;;;;3.17;2.08;;;;;;;9.52;100.00;102347.41;5013665;28;20050;-60
2021/05/03 01:12:22;;;;;;;3.63;1.75;;;;;;;9.55;100.00;102349.75;5013458;28;20042;-65
2021/05/03 01:14:48;;;;;;;4.22;2.10;;;;;;;9.59;100.00;102342.00;5013530;28;20863;-63
2021/05/03 01:17:14;;;;;;;5.32;2.08;;;;;;;9.64;100.00;102350.44;5013445;28;20046;-61
2021/05/03 01:19:39;;;;;;;2.20;1.95;;;;;;;9.69;100.00;102342.47;5013379;28;20069;-62
2021/05/03 01:22:06;;;;;;;5.47;2.08;;;;;;;9.73;100.00;102338.34;5013364;28;20036;-62
2021/05/03 01:24:31;;;;;;;4.38;1.80;;;;;;;9.77;100.00;102339.63;5013383;28;20460;-64
2021/05/03 01:26:58;;;;;;;1.88;1.77;;;;;;;9.81;100.00;102340.06;5013014;28;20046;-63
2021/05/03 01:29:24;;;;;;;2.13;1.55;;;;;;;9.83;100.00;102338.81;5013233;28;20120;-62
2021/05/03 01:31:52;;;;;;;2.85;1.67;;;;;;;9.84;100.00;102339.63;5012997;28;20366;-63
2021/05/03 01:34:18;;;;;;;3.08;1.52;;;;;;;9.85;100.00;102338.59;5013171;28;20042;-62
2021/05/03 01:36:45;;;;;;;2.90;1.70;;;;;;;9.87;100.00;102326.44;5013088;28;20044;-62
2021/05/03 01:39:13;;;;;;;3.25;1.70;;;;;;;9.90;100.00;102323.31;5013074;28;20046;-64
2021/05/03 01:41:39;;;;;;;1.90;1.70;;;;;;;9.93;100.00;102319.34;5027933;28;20052;-63
2021/05/03 01:44:08;;;;;;;3.05;1.60;;;;;;;9.95;100.00;102318.09;5013019;28;20049;-61
2021/05/03 01:46:36;;;;;;;2.55;1.70;;;;;;;9.95;100.00;102318.09;5012742;28;20108;-62
2021/05/03 01:49:04;;;;;;;2.45;1.63;;;;;;;9.97;100.00;102313.28;5012925;28;20034;-63
2021/05/03 01:51:31;;;;;;;3.22;1.70;;;;;;;9.98;100.00;102303.19;5012824;28;20046;-63
2021/05/03 01:53:58;;;;;;;2.45;1.98;;;;;;;9.98;100.00;102305.91;5012667;28;20463;-63
2021/05/03 01:56:25;;;;;;;1.55;1.45;;;;;;;9.97;100.00;102307.81;5012713;28;20045;-63
2021/05/03 01:58:54;;;;;;;2.97;1.70;;;;;;;9.98;100.00;102309.50;5012687;28;20092;-61
2021/05/03 02:01:20;;;;;;;1.92;1.60;;;;;;;9.98;100.00;102304.03;5012684;28;20092;-62
2021/05/03 02:03:46;;;;;;;5.70;1.65;;;;;;;9.98;100.00;102309.50;5011228;28;20429;-60
2021/05/03 02:06:15;;;;;;;3.25;1.70;;;;;;;10.00;100.00;102311.19;5027899;28;20041;-60
2021/05/03 02:08:41;;;;;;;2.42;1.88;;;;;;;9.98;100.00;102300.47;5012671;28;20053;-63
2021/05/03 02:11:08;;;;;;;2.55;1.30;;;;;;;9.98;100.00;102304.03;5012364;28;20124;-61
2021/05/03 02:13:34;;;;;;;2.30;1.85;;;;;;;9.98;100.00;102303.19;5012152;28;20081;-63
2021/05/03 02:16:00;;;;;;;3.08;1.40;;;;;;;9.97;100.00;102296.06;5012463;28;20037;-60
2021/05/03 02:18:26;;;;;;;3.80;1.50;;;;;;;9.99;100.00;102293.97;5012515;28;20451;-63
2021/05/03 02:20:52;;;;;;;4.00;1.60;;;;;;;9.99;100.00;102288.50;5012270;28;20092;-62
2021/05/03 02:23:17;;;;;;;5.30;1.80;;;;;;;10.01;100.00;102291.03;5012170;28;20041;-63
2021/05/03 02:25:43;;;;;;;3.75;1.88;;;;;;;10.02;100.00;102292.69;5012277;28;20045;-63
2021/05/03 02:28:10;;;;;;;3.58;2.08;;;;;;;10.04;100.00;102285.16;5012087;28;20038;-61
2021/05/03 02:30:36;;;;;;;3.35;1.65;;;;;;;10.06;100.00;102294.81;5012061;28;20034;-63
2021/05/03 02:33:02;;;;;;;2.30;1.80;;;;;;;10.07;100.00;102285.63;5011980;28;20068;-64
2021/05/03 02:35:29;;;;;;;3.13;1.80;;;;;;;10.09;100.00;102288.13;5012104;28;20532;-65
2021/05/03 02:38:00;;;;;;;3.92;1.50;;;;;;;10.08;100.00;102275.53;5011990;28;20133;-63
2021/05/03 02:40:26;;;;;;;2.72;1.67;;;;;;;10.09;100.00;102274.50;5011443;28;20103;-62
2021/05/03 02:42:54;;;;;;;4.30;1.88;;;;;;;10.10;100.00;102273.44;5011886;28;20034;-61
2021/05/03 02:45:21;;;;;;;5.75;1.85;;;;;;;10.11;100.00;102275.13;5011922;28;20037;-63
2021/05/03 02:47:47;;;;;;;4.80;2.45;;;;;;;10.12;100.00;102277.66;5011710;28;20124;-61
2021/05/03 02:50:14;;;;;;;6.25;1.90;;;;;;;10.13;100.00;102267.56;5010300;28;20500;-63
2021/05/03 02:52:41;;;;;;;3.10;1.90;;;;;;;10.14;100.00;102271.97;5011571;28;20404;-60
2021/05/03 02:55:11;;;;;;;3.10;2.00;;;;;;;10.14;100.00;102275.53;5011762;28;20145;-62
2021/05/03 02:57:42;;;;;;;3.40;1.88;;;;;;;10.15;100.00;102270.94;5011719;28;20400;-61
2021/05/03 03:00:10;;;;;;;10.43;1.95;;;;;;;10.15;100.00;102265.47;5011659;28;20042;-63
2021/05/03 03:02:36;;;;;;;2.83;2.22;;;;;;;10.16;100.00;102272.59;5011478;28;20041;-64
2021/05/03 03:05:03;;;;;;;4.82;2.33;;;;;;;10.18;100.00;102254.13;5011322;28;20084;-62
2021/05/03 03:07:28;;;;;;;3.40;2.67;;;;;;;10.17;100.00;102263.38;5011384;28;20045;-61
2021/05/03 03:09:54;;;;;;;4.55;1.83;;;;;;;10.18;100.00;102265.06;5011414;28;20045;-61
2021/05/03 03:12:20;;;;;;;3.03;2.10;;;;;;;10.17;100.00;102257.91;5011324;28;20485;-62
2021/05/03 03:14:45;;;;;;;4.55;1.73;;;;;;;10.16;100.00;102250.75;5011321;28;20045;-62
2021/05/03 03:17:11;;;;;;;3.38;2.08;;;;;;;10.15;100.00;102249.94;5011383;28;20100;-60
2021/05/03 03:19:39;;;;;;;2.63;1.50;;;;;;;10.14;100.00;102247.41;5011351;28;20050;-64
2021/05/03 03:22:06;;;;;;;2.63;1.70;;;;;;;10.14;100.00;102247.41;5011276;28;20412;-63
2021/05/03 03:24:32;;;;;;;4.10;2.25;;;;;;;10.14;100.00;102236.47;5011273;28;20038;-61
2021/05/03 03:26:58;;;;;;;6.53;2.47;;;;;;;10.13;100.00;102234.81;5011279;28;20065;-64
2021/05/03 03:29:24;;;;;;;3.47;1.70;;;;;;;10.13;100.00;102234.81;5011410;28;20488;-62
2021/05/03 03:31:49;;;;;;;5.43;1.90;;;;;;;10.12;100.00;102244.88;5011407;28;20049;-63
2021/05/03 03:34:15;;;;;;;3.83;1.90;;;;;;;10.12;100.00;102238.56;5011228;28;20481;-62
2021/05/03 03:36:41;;;;;;;4.63;1.88;;;;;;;10.11;100.00;102236.91;5011230;28;20046;-62
2021/05/03 03:39:07;;;;;;;7.90;1.77;;;;;;;10.11;100.00;102231.44;5011213;28;20121;-63
2021/05/03 03:41:33;;;;;;;2.85;1.33;;;;;;;10.11;100.00;102231.44;5011019;28;20034;-61
2021/05/03 03:44:00;;;;;;;6.43;1.52;;;;;;;10.10;100.00;102213.38;5011161;28;20121;-60
2021/05/03 03:46:25;;;;;;;3.45;1.50;;;;;;;10.09;100.00;102218.00;5010033;28;20037;-64
2021/05/03 03:48:51;;;;;;;3.83;1.85;;;;;;;10.10;100.00;102202.44;5011530;28;20353;-60
2021/05/03 03:51:16;;;;;;;1.83;1.42;;;;;;;10.11;100.00;102209.59;5013916;28;20061;-62
2021/05/03 03:53:42;;;;;;;9.02;2.08;;;;;;;10.11;100.00;102204.13;5015527;28;20041;-63
2021/05/03 03:56:11;;;;;;;5.47;1.70;;;;;;;10.12;100.00;102205.81;5014958;28;20123;-62
2021/05/03 03:58:37;;;;;;;3.45;1.65;;;;;;;10.12;100.00;102200.34;5015014;28;20049;-62
2021/05/03 04:01:03;;;;;;;5.15;1.88;;;;;;;10.12;100.00;102203.09;5014898;28;20038;-61
2021/05/03 04:03:29;;;;;;;5.18;2.28;;;;;;;10.12;100.00;102194.91;5014807;28;20030;-63
2021/05/03 04:06:14;;;;;;;3.65;2.00;;;;;;;10.11;100.00;102199.50;5015034;28;20472;-61
2021/05/03 04:21:05;;;;;;;3.03;1.77;;;;;;;10.13;100.00;102185.66;5015161;28;20038;-64
2021/05/03 04:24:43;;;;;;;7.97;2.28;;;;;;;10.10;100.00;102180.63;5014591;28;20388;-62
2021/05/03 04:27:08;;;;;;;3.33;1.90;;;;;;;10.10;100.00;102186.06;5014525;28;20069;-64
2021/05/03 04:29:34;;;;;;;2.78;1.55;;;;;;;10.09;100.00;102178.94;5014566;28;20068;-63
2021/05/03 04:32:00;;;;;;;4.60;2.20;;;;;;;10.10;100.00;102164.22;5014317;28;20095;-64
2021/05/03 04:34:26;;;;;;;3.42;1.40;;;;;;;10.08;100.00;102166.34;5014344;28;20096;-63
2021/05/03 04:36:52;;;;;;;1.58;1.17;;;;;;;10.09;100.00;102163.41;5014303;28;20049;-62
2021/05/03 04:39:18;;;;;;;5.60;1.13;;;;;;;10.09;100.00;102165.28;5014275;28;20037;-63
2021/05/03 04:41:43;;;;;;;2.83;1.15;;;;;;;10.07;100.00;102164.66;5014188;28;20072;-63
2021/05/03 04:44:09;;;;;;;3.38;1.27;;;;;;;10.02;100.00;102150.75;5014135;28;20443;-62
2021/05/03 04:46:34;;;;;;;2.47;0.95;;;;;;;9.96;100.00;102153.28;5014202;28;20488;-64
2021/05/03 04:49:00;;;;;;;2.30;1.00;;;;;;;9.94;100.00;102144.47;5014087;28;20378;-63
2021/05/03 04:51:26;;;;;;;4.82;1.40;;;;;;;9.94;100.00;102160.00;5013934;28;20050;-63
2021/05/03 04:53:51;;;;;;;4.13;1.10;;;;;;;9.93;100.00;102153.69;5013918;28;20046;-63
2021/05/03 04:56:17;;;;;;;2.33;0.80;;;;;;;9.91;100.00;102150.34;5013919;28;20099;-62
2021/05/03 04:58:42;;;;;;;5.43;1.60;;;;;;;9.90;100.00;102148.66;5014102;28;20069;-61
2021/05/03 05:01:08;;;;;;;2.47;1.10;;;;;;;9.91;100.00;102150.34;5013883;28;20095;-62
2021/05/03 05:03:33;;;;;;;4.00;1.33;;;;;;;9.91;100.00;102150.34;5013367;28;20046;-63
2021/05/03 05:05:59;;;;;;;1.75;1.08;;;;;;;9.94;100.00;102149.06;5013787;28;20038;-63
2021/05/03 05:08:25;;;;;;;7.63;1.40;;;;;;;9.95;100.00;102140.69;5013768;28;20042;-63
2021/05/03 05:10:51;;;;;;;6.85;1.40;;;;;;;9.96;100.00;102147.81;5013596;28;20120;-62
2021/05/03 05:13:16;;;;;;;9.73;1.40;;;;;;;10.01;100.00;102143.63;5013299;28;20053;-61
2021/05/03 05:15:42;;;;;;;4.97;1.40;;;;;;;10.03;100.00;102139.63;5013661;28;20049;-61
2021/05/03 05:18:08;;;;;;;4.38;1.50;;;;;;;10.04;100.00;102148.66;5013740;28;20041;-62
2021/05/03 05:20:34;;;;;;;4.40;1.17;;;;;;;10.05;100.00;102142.16;5013454;28;20439;-64
2021/05/03 05:23:04;;;;;;;6.00;1.20;;;;;;;10.05;100.00;102134.81;5013318;28;20469;-60
2021/05/03 05:25:30;;;;;;;5.47;0.98;;;;;;;10.06;100.00;102141.94;5013260;28;20041;-63
2021/05/03 05:27:55;;;;;;;6.60;1.40;;;;;;;10.07;100.00;102137.34;5013362;28;20042;-62
2021/05/03 05:30:21;;;;;;;6.22;1.35;;;;;;;10.08;100.00;102139.03;5011900;28;20050;-63
2021/05/03 05:32:47;;;;;;;5.90;1.60;;;;;;;10.11;100.00;102138.63;5012998;28;20042;-62
2021/05/03 05:35:12;;;;;;;8.32;1.55;;;;;;;10.10;100.00;102135.03;5013316;28;20534;-63
2021/05/03 05:37:38;;;;;;;6.65;1.52;;;;;;;10.13;100.00;102131.91;5013293;28;20091;-64
2021/05/03 05:40:05;;;;;;;5.60;1.75;;;;;;;10.14;100.00;102130.84;5028185;28;20049;-62
2021/05/03 05:42:31;;;;;;;4.47;1.80;;;;;;;10.17;100.00;102133.16;5013077;28;20038;-62
2021/05/03 05:44:56;;;;;;;6.50;2.05;;;;;;;10.19;100.00;102124.75;5013016;28;20049;-62
2021/05/03 05:47:22;;;;;;;5.45;1.52;;;;;;;10.23;100.00;102126.88;5013006;28;20489;-62
2021/05/03 05:49:48;;;;;;;4.05;1.95;;;;;;;10.28;100.00;102118.09;5012970;28;20164;-63
2021/05/03 05:52:13;;;;;;;5.35;1.25;;;;;;;10.32;100.00;102108.41;5012873;28;20091;-63
2021/05/03 05:54:39;;;;;;;5.72;1.70;;;;;;;10.35;100.00;102112.63;5012826;28;20038;-61
2021/05/03 05:57:05;;;;;;;4.72;2.17;;;;;;;10.37;100.00;102105.88;5012767;28;20041;-64
2021/05/03 05:59:31;;;;;;;5.25;1.85;;;;;;;10.39;100.00;102109.25;5012669;28;20030;-62
2021/05/03 06:01:57;;;;;;;4.03;1.70;;;;;;;10.42;100.00;102103.38;5012675;28;20436;-63
2021/05/03 06:04:22;;;;;;;4.53;1.75;;;;;;;10.42;100.00;102110.75;5012642;28;20084;-62
2021/05/03 06:06:49;;;;;;;2.95;1.33;;;;;;;10.42;100.00;102102.56;5012601;28;20176;-62
2021/05/03 06:09:14;;;;;;;5.68;1.88;;;;;;;10.43;100.00;102096.03;5012775;28;20500;-62
2021/05/03 06:11:40;;;;;;;4.47;1.30;;;;;;;10.45;100.00;102097.50;5012503;28;20046;-64
2021/05/03 06:14:06;;;;;;;1.45;1.08;;;;;;;10.47;100.00;102098.13;5011603;28;20037;-62
2021/05/03 06:16:32;;;;;;;2.63;1.45;;;;;;;10.49;100.00;102093.28;5027576;28;20033;-63
2021/05/03 06:18:58;;;;;;;4.55;1.30;;;;;;;10.52;100.00;102076.47;5011165;28;20092;-61
2021/05/03 06:21:24;;;;;;;8.13;1.58;;;;;;;10.56;100.00;102077.72;5012380;28;20052;-60
2021/05/03 06:23:50;;;;;;;3.00;1.30;;;;;;;10.61;100.00;102073.53;5012227;28;20042;-61
2021/05/03 06:26:16;;;;;;;5.18;1.70;;;;;;;10.64;100.00;102067.63;5012717;28;20108;-62
2021/05/03 06:28:42;;;;;;;4.25;1.30;;;;;;;10.67;100.00;102084.44;5012390;28;20033;-62
2021/05/03 06:31:08;;;;;;;5.28;1.42;;;;;;;10.69;100.00;102070.56;5012144;28;20134;-62
2021/05/03 06:33:33;;;;;;;6.72;1.83;;;;;;;10.73;100.00;102075.38;5011968;28;20126;-64
2021/05/03 06:35:59;;;;;;;5.95;1.98;;;;;;;10.79;100.00;102070.97;5012486;28;20065;-64
2021/05/03 06:38:25;;;;;;;3.90;1.38;;;;;;;10.83;100.00;102055.81;5012021;28;20072;-63
2021/05/03 06:40:50;;;;;;;5.30;1.38;;;;;;;10.85;100.00;102070.13;5011955;28;20464;-61
2021/05/03 06:43:16;;;;;;;6.95;1.67;;;;;;;10.90;100.00;102069.47;5012044;28;20030;-63
2021/05/03 06:45:43;;;;;;;4.60;1.70;;;;;;;10.91;100.00;102074.72;5011970;28;20476;-63
2021/05/03 06:48:09;;;;;;;5.38;1.52;;;;;;;10.95;100.00;102070.53;5011931;28;20099;-62
2021/05/03 06:50:37;;;;;;;6.28;1.63;;;;;;;10.99;100.00;102062.72;5011732;28;20034;-62
2021/05/03 06:53:03;;;;;;;5.78;1.42;;;;;;;11.04;100.00;102058.28;5011561;28;20112;-61
2021/05/03 06:55:29;;;;;;;7.47;1.63;;;;;;;11.11;100.00;102059.09;5011448;28;20093;-61
2021/05/03 06:57:54;;;;;;;7.13;1.40;;;;;;;11.12;100.00;102060.78;5011759;28;20037;-62
2021/05/03 07:00:21;;;;;;;6.15;1.40;;;;;;;11.09;100.00;102066.66;5011574;28;20084;-64
2021/05/03 07:02:48;;;;;;;8.02;1.50;;;;;;;11.10;100.00;102065.59;5011555;28;20042;-63
2021/05/03 07:05:13;;;;;;;6.80;1.45;;;;;;;11.14;100.00;102053.19;5011635;28;20045;-61
2021/05/03 07:07:39;;;;;;;3.92;1.50;;;;;;;11.17;100.00;102060.97;5011411;28;20068;-63
2021/05/03 07:10:06;;;;;;;3.38;1.48;;;;;;;11.16;100.00;102056.56;5011427;28;20133;-61
2021/05/03 07:12:43;;;;;;;4.15;1.20;;;;;;;11.17;100.00;102052.75;5009019;28;20053;-63
2021/05/03 07:15:11;;;;;;;5.55;1.17;;;;;;;11.14;100.00;102047.72;5011303;28;20058;-62
2021/05/03 07:17:37;;;;;;;3.40;1.50;;;;;;;11.17;100.00;102041.00;5011307;28;20049;-63
2021/05/03 07:20:06;;;;;;;4.78;1.50;;;;;;;11.25;100.00;102053.56;5011394;28;20427;-62
2021/05/03 07:22:35;;;;;;;4.45;1.33;;;;;;;11.33;100.00;102045.97;5011656;28;20164;-63
2021/05/03 07:25:03;;;;;;;6.35;1.50;;;;;;;11.39;100.00;102050.56;5010883;28;20121;-61
2021/05/03 07:27:30;;;;;;;7.68;2.30;;;;;;;11.41;100.00;102031.19;5011148;28;20392;-62
2021/05/03 07:29:55;;;;;;;4.82;1.17;;;;;;;11.33;100.00;102015.03;5011151;28;20042;-63
2021/05/03 07:32:22;;;;;;;5.68;1.70;;;;;;;11.33;100.00;102006.84;5011064;28;20049;-61
2021/05/03 07:34:48;;;;;;;6.38;1.38;;;;;;;11.31;100.00;102025.38;5011070;28;20338;-64
2021/05/03 07:37:13;;;;;;;8.23;2.58;;;;;;;11.40;100.00;102010.34;5011074;28;20156;-65
2021/05/03 07:39:42;;;;;;;9.13;1.75;;;;;;;11.46;100.00;102001.28;5011287;28;20038;-62
2021/05/03 07:42:09;;;;;;;12.70;1.45;;;;;;;11.47;100.00;101983.81;5011124;28;20037;-60
2021/05/03 07:44:35;;;;;;;11.98;2.05;;;;;;;11.50;100.00;102002.53;5010901;28;20145;-63
2021/05/03 07:47:01;;;;;;;9.98;2.55;;;;;;;11.51;100.00;102006.94;5011021;28;20073;-62
2021/05/03 07:49:26;;;;;;;13.90;1.83;;;;;;;11.64;100.00;101993.19;5010909;28;20440;-62
2021/05/03 07:51:52;;;;;;;10.98;2.08;;;;;;;11.68;100.00;101994.41;5025993;28;20046;-61
2021/05/03 07:54:18;;;;;;;8.18;1.77;;;;;;;11.69;100.00;101997.97;5010828;28;20060;-61
2021/05/03 07:56:44;;;;;;;9.73;2.08;;;;;;;11.65;100.00;102002.22;5026121;28;20497;-65
2021/05/03 07:59:10;;;;;;;5.70;1.50;;;;;;;11.55;100.00;101993.66;5011075;28;20096;-62
2021/05/03 08:01:37;;;;;;;8.65;1.75;;;;;;;11.55;100.00;101982.69;5010811;28;20033;-63
2021/05/03 08:04:03;;;;;;;8.88;2.20;;;;;;;11.43;100.00;101982.56;5010775;28;20128;-62
2021/05/03 08:06:28;;;;;;;11.45;2.05;;;;;;;11.42;100.00;101972.69;5010738;28;20034;-62
2021/05/03 08:08:54;;;;;;;10.70;2.00;;;;;;;11.46;100.00;101968.47;5010767;28;20365;-61
2021/05/03 08:11:20;;;;;;;7.72;1.75;;;;;;;11.43;100.00;101969.72;5010631;28;20046;-63
2021/05/03 08:13:47;;;;;;;5.97;1.50;;;;;;;11.39;100.00;101967.66;5008583;28;20058;-64
2021/05/03 08:16:16;;;;;;;11.35;1.75;;;;;;;11.46;100.00;101963.00;5010781;28;20129;-61
2021/05/03 08:18:42;;;;;;;7.15;1.45;;;;;;;11.48;100.00;101953.50;5010760;28;20045;-63
2021/05/03 08:21:10;;;;;;;6.03;1.30;;;;;;;11.48;100.00;101960.88;5010647;28;20128;-65
2021/05/03 08:23:36;;;;;;;8.98;1.50;;;;;;;11.44;100.00;101935.81;5010786;28;20472;-62
2021/05/03 08:26:02;;;;;;;5.30;1.45;;;;;;;11.45;100.00;101942.13;5010676;28;20042;-61
2021/05/03 08:28:28;;;;;;;8.82;1.83;;;;;;;11.42;100.00;101929.75;5010630;28;20100;-64
2021/05/03 08:30:55;;;;;;;8.50;2.65;;;;;;;11.53;100.00;101930.94;5010590;28;20034;-62
2021/05/03 08:33:21;;;;;;;10.70;1.73;;;;;;;11.71;100.00;101900.91;5010636;28;20037;-63
2021/05/03 08:35:47;;;;;;;7.57;2.08;;;;;;;11.93;100.00;101911.47;5010545;28;20149;-64
2021/05/03 08:38:15;;;;;;;9.30;1.30;;;;;;;12.01;100.00;101900.25;5013191;28;20080;-62
2021/05/03 08:40:41;;;;;;;9.82;1.85;;;;;;;11.98;100.00;101895.22;5014291;28;20346;-62
2021/05/03 08:43:07;;;;;;;9.55;2.33;;;;;;;12.03;100.00;101898.13;5014436;28;20511;-63
2021/05/03 08:45:35;;;;;;;8.50;1.98;;;;;;;12.08;100.00;101906.47;5014069;28;20076;-63
2021/05/03 08:50:47;;;;;;;7.68;2.05;;;;;;;12.16;100.00;101905.38;5014494;28;20062;-64
2021/05/03 08:53:35;;;;;;;13.38;2.15;;;;;;;12.16;100.00;101892.50;5014327;28;20109;-61
2021/05/03 08:56:01;;;;;;;12.93;2.00;;;;;;;12.19;100.00;101892.03;5014219;28;20037;-63
2021/05/03 08:58:28;;;;;;;10.48;2.10;;;;;;;12.27;100.00;101878.03;5014205;28;20037;-63
2021/05/03 09:00:54;;;;;;;7.43;2.15;;;;;;;12.32;100.00;101875.47;5014205;28;20034;-62
2021/05/03 09:03:20;;;;;;;16.40;2.47;;;;;;;12.32;100.00;101870.00;5014142;28;20492;-60
2021/05/03 09:05:46;;;;;;;8.77;1.90;;;;;;;12.26;100.00;101859.09;5014156;28;20058;-63
2021/05/03 09:08:26;;;;;;;10.38;2.17;;;;;;;12.21;100.00;101848.81;5014352;28;20061;-64
2021/05/03 09:10:55;;;;;;;14.13;2.53;;;;;;;12.17;100.00;101866.78;5014025;28;20103;-63
2021/05/03 09:13:33;;;;;;;10.85;2.42;;;;;;;12.15;100.00;101852.50;5013684;28;20046;-62
2021/05/03 09:16:23;;;;;;;9.52;1.88;;;;;;;12.11;100.00;101853.16;5013855;28;20033;-62
2021/05/03 09:18:49;;;;;;;10.68;1.80;;;;;;;12.12;100.00;101860.31;5028615;28;20053;-62
2021/05/03 09:21:30;;;;;;;8.63;1.90;;;;;;;12.05;100.00;101846.69;5012440;28;20080;-62
2021/05/03 09:24:06;;;;;;;7.03;1.73;;;;;;;12.00;100.00;101868.44;5013742;28;20100;-63
2021/05/03 09:26:49;;;;;;;14.57;2.30;;;;;;;11.98;100.00;101856.91;5013555;28;20119;-63
2021/05/03 09:29:44;;;;;;;11.48;2.88;;;;;;;11.97;100.00;101842.34;5013537;28;20033;-62
2021/05/03 09:32:13;;;;;;;;;;;;;;;12.07;100.00;101845.41;5013669;28;20084;-62
2021/05/03 09:34:42;;;;;;;12.90;2.17;;;;;;;12.00;100.00;101813.69;5013232;28;20386;-64
2021/05/03 09:37:18;;;;;;;13.85;2.45;;;;;;;11.97;100.00;101827.81;5013163;28;20037;-63
2021/05/03 09:40:02;;;;;;;9.77;2.85;;;;;;;11.92;100.00;101831.22;5013120;28;20029;-61
2021/05/03 09:42:45;;;;;;;10.93;2.38;;;;;;;11.93;100.00;101815.66;5013328;28;20496;-63
2021/05/03 09:45:22;;;;;;;15.32;2.63;;;;;;;11.99;100.00;101825.72;5013348;28;20034;-62
2021/05/03 09:47:50;;;;;;;8.65;2.63;;;;;;;12.02;100.00;101825.25;5012948;28;20116;-60
2021/05/03 09:50:22;;;;;;;17.63;3.50;;;;;;;12.02;100.00;101817.88;5012871;28;20030;-63
2021/05/03 09:53:12;;;;;;;10.98;3.05;;;;;;;11.96;100.00;101820.66;5012823;28;20034;-64
2021/05/03 09:55:48;;;;;;;11.60;2.97;;;;;;;11.93;100.00;101826.59;5013076;28;20383;-62
2021/05/03 09:58:25;;;;;;;12.95;2.67;;;;;;;11.91;100.00;101795.88;5012761;28;20061;-61
2021/05/03 10:00:57;;;;;;;10.60;2.45;;;;;;;11.88;100.00;101835.50;5012913;28;20034;-64
2021/05/03 10:03:45;;;;;;;11.52;2.60;;;;;;;11.86;100.00;101814.91;5012672;28;20037;-62
2021/05/03 10:06:13;;;;;;;17.08;2.83;;;;;;;11.80;100.00;101826.72;5012689;28;20120;-64
2021/05/03 10:08:41;;;;;;;13.52;3.00;;;;;;;11.95;100.00;101816.25;5012671;28;20436;-64
2021/05/03 10:11:12;;;;;;;14.35;2.67;;;;;;;12.08;100.00;101785.97;5027713;28;20034;-63
2021/05/03 10:13:39;;;;;;;11.13;2.38;;;;;;;12.16;100.00;101782.94;5012277;28;20054;-62
2021/05/03 10:16:09;;;;;;;9.77;2.40;;;;;;;12.32;100.00;101786.94;5012543;28;20045;-63
2021/05/03 10:18:39;;;;;;;10.07;2.15;;;;;;;12.47;100.00;101765.44;5012589;28;20065;-62
2021/05/03 10:21:13;;;;;;;14.90;2.88;;;;;;;12.57;100.00;101764.91;5012473;28;20507;-63
2021/05/03 10:23:40;;;;;;;10.65;2.63;;;;;;;12.57;100.00;101751.19;5012304;28;20405;-62
2021/05/03 10:26:08;;;;;;;14.25;2.88;;;;;;;12.52;100.00;101748.34;5012173;28;20124;-61
2021/05/03 10:29:06;;;;;;;12.80;3.03;;;;;;;12.59;100.00;101732.63;5012357;28;20029;-62
2021/05/03 10:31:58;;;;;;;18.20;3.40;;;;;;;12.64;100.00;101724.53;5012013;28;20034;-63
2021/05/03 10:34:48;;;;;;;14.35;3.25;;;;;;;12.68;100.00;101707.41;5012047;28;20045;-62
2021/05/03 10:37:36;;;;;;;22.70;3.30;;;;;;;12.69;100.00;101716.44;5012262;28;20033;-62
2021/05/03 10:40:26;;;;;;;17.85;3.22;;;;;;;12.68;100.00;101720.25;5011949;28;20037;-62
2021/05/03 10:43:09;;;;;;;13.60;2.80;;;;;;;12.85;100.00;101682.88;5015933;28;20038;-64
2021/05/03 10:51:55;;;;;;;14.73;2.78;;;;;;;12.93;100.00;101671.53;5012027;28;20034;-62
2021/05/03 10:54:26;;;;;;;10.75;2.80;;;;;;;12.78;100.00;101682.13;5011958;28;20045;-61
2021/05/03 10:56:54;;;;;;;15.32;3.50;;;;;;;12.74;100.00;101680.94;5011874;28;20062;-60
2021/05/03 10:59:21;;;;;;;14.15;3.15;;;;;;;12.69;100.00;101683.56;5011516;28;20477;-62
2021/05/03 11:01:52;;;;;;;23.33;4.28;;;;;;;12.75;100.00;101660.66;5011533;28;20042;-62
2021/05/03 11:04:19;;;;;;;18.83;3.95;;;;;;;12.75;100.00;101655.19;5011709;28;20084;-60
2021/05/03 11:06:44;;;;;;;17.77;3.67;;;;;;;12.70;100.00;101662.47;5011394;28;20033;-60
2021/05/03 11:09:29;;;;;;;16.20;3.15;;;;;;;12.68;100.00;101646.25;5011614;28;20045;-62
2021/05/03 11:11:54;;;;;;;23.67;4.07;;;;;;;12.66;100.00;101667.56;5011532;28;20095;-63
2021/05/03 11:14:21;;;;;;;14.05;2.95;;;;;;;12.61;100.00;101642.78;5011691;28;20046;-62
2021/05/03 11:16:53;;;;;;;20.65;3.70;;;;;;;12.75;100.00;101646.13;5011778;28;20393;-64
2021/05/03 11:19:40;;;;;;;19.38;3.40;;;;;;;12.80;100.00;101640.75;5011540;28;20491;-60
2021/05/03 11:22:09;;;;;;;24.73;4.30;;;;;;;12.87;100.00;101620.41;5011433;28;20100;-63
2021/05/03 11:24:46;;;;;;;19.67;3.67;;;;;;;12.92;100.00;101623.25;5011195;28;20091;-61
2021/05/03 11:27:30;;;;;;;17.80;3.70;;;;;;;12.99;100.00;101606.66;5011455;28;20037;-63
2021/05/03 11:30:42;;;;;;;20.70;4.03;;;;;;;13.09;100.00;101595.09;5011537;28;20484;-60
2021/05/03 11:32:46;;;;;;;19.33;3.50;;;;;;;13.32;100.00;101606.06;5013139;28;20508;-60
2021/05/03 11:38:11;;;;;;;16.27;3.35;;;;;;;13.49;100.00;101587.75;5011155;28;20361;-64
2021/05/03 11:46:26;;;;;;;15.32;3.45;;;;;;;13.10;100.00;101597.59;5011164;28;20030;-61
2021/05/03 11:48:53;;;;;;;23.20;4.03;;;;;;;13.10;100.00;101602.25;5011104;28;20034;-62
2021/05/03 11:51:19;;;;;;;14.73;3.63;;;;;;;13.16;100.00;101595.78;5011022;28;20385;-63
2021/05/03 11:53:45;;;;;;;16.45;4.00;;;;;;;13.21;100.00;101582.25;5011207;28;20168;-64